Terminal Aerodrome Forecast
Issued by NWS

Home | Current Version | Previous Version | Text Only | Print | Product List | Glossary On
Versions: 1 2 3 4 5 6 7 8 9 10 11 12 13 14 15 16 17 18 19 20 21
000
FTUS43 KGRB 220520
TAFATW
TAF
KATW 220520Z 2206/2306 00000KT P6SM BKN250
     FM221000 04005KT P6SM OVC070
     FM221800 07008KT P6SM OVC060
     FM230300 09008KT P6SM OVC060 WS020/13035KT
     FM230500 10008KT P6SM -SN OVC040 WS020/15040KT=

USA.gov is the U.S. government's official web portal to all federal, state and local government web resources and services.